sensor_id;sensor_type;location;lat;lon;timestamp;pressure;altitude;pressure_sealevel;temperature;humidity
56681;BME280;42558;52.388;13.390;2022-12-18T00:00:22;102847.70;;;-7.44;100.00
56681;BME280;42558;52.388;13.390;2022-12-18T00:02:51;102848.81;;;-7.53;100.00
56681;BME280;42558;52.388;13.390;2022-12-18T00:05:19;102850.31;;;-7.46;100.00
56681;BME280;42558;52.388;13.390;2022-12-18T00:07:47;102858.43;;;-7.66;100.00
56681;BME280;42558;52.388;13.390;2022-12-18T00:10:16;102856.98;;;-7.71;100.00
56681;BME280;42558;52.388;13.390;2022-12-18T00:12:44;102856.14;;;-7.57;100.00
56681;BME280;42558;52.388;13.390;2022-12-18T00:15:13;102854.68;;;-7.57;100.00
56681;BME280;42558;52.388;13.390;2022-12-18T00:17:41;102859.54;;;-7.61;100.00
56681;BME280;42558;52.388;13.390;2022-12-18T00:20:10;102861.48;;;-7.64;100.00
56681;BME280;42558;52.388;13.390;2022-12-18T00:22:38;102855.92;;;-7.47;100.00
56681;BME280;42558;52.388;13.390;2022-12-18T00:25:07;102859.30;;;-7.41;100.00
56681;BME280;42558;52.388;13.390;2022-12-18T00:27:35;102860.00;;;-7.43;100.00
56681;BME280;42558;52.388;13.390;2022-12-18T00:30:05;102854.55;;;-7.40;100.00
56681;BME280;42558;52.388;13.390;2022-12-18T00:32:32;102852.11;;;-7.56;100.00
56681;BME280;42558;52.388;13.390;2022-12-18T00:35:01;102848.74;;;-7.51;100.00
56681;BME280;42558;52.388;13.390;2022-12-18T00:37:29;102846.53;;;-7.43;100.00
56681;BME280;42558;52.388;13.390;2022-12-18T00:39:58;102844.63;;;-7.37;100.00
56681;BME280;42558;52.388;13.390;2022-12-18T00:42:25;102842.80;;;-7.33;100.00
56681;BME280;42558;52.388;13.390;2022-12-18T00:45:11;102845.73;;;-7.28;100.00
56681;BME280;42558;52.388;13.390;2022-12-18T00:47:41;102848.14;;;-7.34;100.00
56681;BME280;42558;52.388;13.390;2022-12-18T00:50:11;102850.98;;;-7.49;100.00
56681;BME280;42558;52.388;13.390;2022-12-18T00:52:40;102848.99;;;-7.42;100.00
56681;BME280;42558;52.388;13.390;2022-12-18T00:55:09;102848.98;;;-7.41;100.00
56681;BME280;42558;52.388;13.390;2022-12-18T00:57:37;102847.57;;;-7.60;100.00
56681;BME280;42558;52.388;13.390;2022-12-18T01:00:08;102843.87;;;-7.52;100.00
56681;BME280;42558;52.388;13.390;2022-12-18T01:02:36;102845.70;;;-7.51;100.00
56681;BME280;42558;52.388;13.390;2022-12-18T01:05:06;102848.64;;;-7.61;100.00
56681;BME280;42558;52.388;13.390;2022-12-18T01:07:33;102846.25;;;-7.49;100.00
56681;BME280;42558;52.388;13.390;2022-12-18T01:10:01;102846.52;;;-7.66;100.00
56681;BME280;42558;52.388;13.390;2022-12-18T01:12:30;102846.88;;;-7.77;100.00
56681;BME280;42558;52.388;13.390;2022-12-18T01:14:58;102851.02;;;-7.71;100.00
56681;BME280;42558;52.388;13.390;2022-12-18T01:17:27;102853.36;;;-7.81;100.00
56681;BME280;42558;52.388;13.390;2022-12-18T01:19:55;102856.45;;;-7.92;100.00
56681;BME280;42558;52.388;13.390;2022-12-18T01:22:24;102858.44;;;-7.84;100.00
56681;BME280;42558;52.388;13.390;2022-12-18T01:24:52;102860.45;;;-7.84;100.00
56681;BME280;42558;52.388;13.390;2022-12-18T01:27:20;102867.52;;;-7.87;100.00
56681;BME280;42558;52.388;13.390;2022-12-18T01:29:49;102868.57;;;-7.91;100.00
56681;BME280;42558;52.388;13.390;2022-12-18T01:32:17;102872.67;;;-7.82;100.00
56681;BME280;42558;52.388;13.390;2022-12-18T01:34:46;102878.05;;;-7.80;100.00
56681;BME280;42558;52.388;13.390;2022-12-18T01:37:14;102875.16;;;-7.73;100.00
56681;BME280;42558;52.388;13.390;2022-12-18T01:39:42;102877.35;;;-7.72;100.00
56681;BME280;42558;52.388;13.390;2022-12-18T01:42:15;102877.50;;;-7.68;100.00
56681;BME280;42558;52.388;13.390;2022-12-18T01:48:03;102877.48;;;-7.82;100.00
56681;BME280;42558;52.388;13.390;2022-12-18T01:50:39;102881.74;;;-7.74;100.00
56681;BME280;42558;52.388;13.390;2022-12-18T01:53:15;102884.05;;;-7.64;100.00
56681;BME280;42558;52.388;13.390;2022-12-18T01:55:51;102885.74;;;-7.73;100.00
56681;BME280;42558;52.388;13.390;2022-12-18T01:58:44;102887.48;;;-7.87;100.00
56681;BME280;42558;52.388;13.390;2022-12-18T02:01:16;102886.03;;;-7.93;100.00
56681;BME280;42558;52.388;13.390;2022-12-18T02:03:46;102883.11;;;-7.96;100.00
56681;BME280;42558;52.388;13.390;2022-12-18T02:06:40;102884.23;;;-8.00;100.00
56681;BME280;42558;52.388;13.390;2022-12-18T02:09:16;102886.33;;;-8.01;100.00
56681;BME280;42558;52.388;13.390;2022-12-18T02:12:00;102888.12;;;-7.96;100.00
56681;BME280;42558;52.388;13.390;2022-12-18T02:17:31;102890.52;;;-7.77;100.00
56681;BME280;42558;52.388;13.390;2022-12-18T02:20:29;102889.75;;;-7.76;100.00
56681;BME280;42558;52.388;13.390;2022-12-18T02:23:36;102898.20;;;-7.84;100.00
56681;BME280;42558;52.388;13.390;2022-12-18T02:29:02;102896.10;;;-7.79;100.00
56681;BME280;42558;52.388;13.390;2022-12-18T02:31:47;102895.98;;;-7.72;100.00
56681;BME280;42558;52.388;13.390;2022-12-18T02:34:20;102898.42;;;-7.68;100.00
56681;BME280;42558;52.388;13.390;2022-12-18T02:36:53;102902.02;;;-7.70;100.00
56681;BME280;42558;52.388;13.390;2022-12-18T02:39:26;102906.82;;;-7.70;100.00
56681;BME280;42558;52.388;13.390;2022-12-18T02:41:59;102906.30;;;-7.71;100.00
56681;BME280;42558;52.388;13.390;2022-12-18T02:44:31;102912.27;;;-7.89;100.00
56681;BME280;42558;52.388;13.390;2022-12-18T02:47:02;102913.78;;;-7.88;100.00
56681;BME280;42558;52.388;13.390;2022-12-18T02:58:47;102907.77;;;-7.87;100.00
56681;BME280;42558;52.388;13.390;2022-12-18T03:01:52;102905.42;;;-7.91;100.00
56681;BME280;42558;52.388;13.390;2022-12-18T03:04:38;102909.62;;;-7.76;100.00
56681;BME280;42558;52.388;13.390;2022-12-18T03:07:19;102907.58;;;-7.68;100.00
56681;BME280;42558;52.388;13.390;2022-12-18T03:09:54;102915.16;;;-7.76;100.00
56681;BME280;42558;52.388;13.390;2022-12-18T03:12:33;102912.70;;;-7.96;100.00
56681;BME280;42558;52.388;13.390;2022-12-18T03:15:30;102913.25;;;-8.04;100.00
56681;BME280;42558;52.388;13.390;2022-12-18T03:18:47;102915.91;;;-7.94;100.00
56681;BME280;42558;52.388;13.390;2022-12-18T03:21:21;102920.97;;;-7.88;100.00
56681;BME280;42558;52.388;13.390;2022-12-18T03:23:54;102927.17;;;-7.98;100.00
56681;BME280;42558;52.388;13.390;2022-12-18T03:26:26;102924.88;;;-7.97;100.00
56681;BME280;42558;52.388;13.390;2022-12-18T03:29:06;102927.64;;;-7.89;100.00
56681;BME280;42558;52.388;13.390;2022-12-18T03:31:42;102927.59;;;-7.92;100.00
56681;BME280;42558;52.388;13.390;2022-12-18T03:34:24;102929.06;;;-8.00;100.00
56681;BME280;42558;52.388;13.390;2022-12-18T03:36:56;102931.36;;;-7.90;100.00
56681;BME280;42558;52.388;13.390;2022-12-18T03:39:27;102930.39;;;-8.10;100.00
56681;BME280;42558;52.388;13.390;2022-12-18T03:42:25;102927.02;;;-8.03;100.00
56681;BME280;42558;52.388;13.390;2022-12-18T03:48:07;102921.77;;;-8.07;100.00
56681;BME280;42558;52.388;13.390;2022-12-18T03:50:59;102923.61;;;-8.06;100.00
56681;BME280;42558;52.388;13.390;2022-12-18T03:53:47;102926.98;;;-8.14;100.00
56681;BME280;42558;52.388;13.390;2022-12-18T03:56:22;102922.46;;;-8.11;100.00
56681;BME280;42558;52.388;13.390;2022-12-18T03:58:53;102915.45;;;-8.07;100.00
56681;BME280;42558;52.388;13.390;2022-12-18T04:01:34;102920.56;;;-8.09;100.00
56681;BME280;42558;52.388;13.390;2022-12-18T04:04:08;102924.02;;;-8.11;100.00
56681;BME280;42558;52.388;13.390;2022-12-18T04:06:41;102920.27;;;-8.09;100.00
56681;BME280;42558;52.388;13.390;2022-12-18T04:09:13;102926.41;;;-8.00;100.00
56681;BME280;42558;52.388;13.390;2022-12-18T04:11:43;102925.61;;;-8.09;100.00
56681;BME280;42558;52.388;13.390;2022-12-18T04:14:14;102932.64;;;-8.14;100.00
56681;BME280;42558;52.388;13.390;2022-12-18T04:16:47;102941.60;;;-8.25;100.00
56681;BME280;42558;52.388;13.390;2022-12-18T04:19:16;102940.13;;;-8.20;100.00
56681;BME280;42558;52.388;13.390;2022-12-18T04:21:46;102933.94;;;-8.12;100.00
56681;BME280;42558;52.388;13.390;2022-12-18T04:24:16;102930.19;;;-8.08;100.00
56681;BME280;42558;52.388;13.390;2022-12-18T04:26:46;102935.48;;;-7.95;100.00
56681;BME280;42558;52.388;13.390;2022-12-18T04:29:16;102946.45;;;-8.06;100.00
56681;BME280;42558;52.388;13.390;2022-12-18T04:31:45;102954.55;;;-8.15;100.00
56681;BME280;42558;52.388;13.390;2022-12-18T04:34:15;102950.98;;;-8.00;100.00
56681;BME280;42558;52.388;13.390;2022-12-18T04:36:45;102948.23;;;-8.01;100.00
56681;BME280;42558;52.388;13.390;2022-12-18T04:39:15;102946.69;;;-8.04;100.00
56681;BME280;42558;52.388;13.390;2022-12-18T04:41:45;102949.98;;;-8.06;100.00
56681;BME280;42558;52.388;13.390;2022-12-18T04:44:15;102958.81;;;-8.07;100.00
56681;BME280;42558;52.388;13.390;2022-12-18T04:46:45;102957.33;;;-8.03;100.00
56681;BME280;42558;52.388;13.390;2022-12-18T04:49:15;102956.53;;;-8.09;100.00
56681;BME280;42558;52.388;13.390;2022-12-18T04:51:45;102961.08;;;-8.09;100.00
56681;BME280;42558;52.388;13.390;2022-12-18T04:54:14;102957.91;;;-8.07;100.00
56681;BME280;42558;52.388;13.390;2022-12-18T04:56:44;102961.49;;;-8.14;100.00
56681;BME280;42558;52.388;13.390;2022-12-18T04:59:14;102964.75;;;-8.12;100.00
56681;BME280;42558;52.388;13.390;2022-12-18T05:01:44;102965.17;;;-8.06;100.00
56681;BME280;42558;52.388;13.390;2022-12-18T05:04:15;102966.66;;;-8.09;100.00
56681;BME280;42558;52.388;13.390;2022-12-18T05:06:46;102963.86;;;-8.07;100.00
56681;BME280;42558;52.388;13.390;2022-12-18T05:09:16;102957.54;;;-8.14;100.00
56681;BME280;42558;52.388;13.390;2022-12-18T05:11:45;102949.46;;;-8.04;100.00
56681;BME280;42558;52.388;13.390;2022-12-18T05:14:13;102957.23;;;-8.12;100.00
56681;BME280;42558;52.388;13.390;2022-12-18T05:16:42;102964.73;;;-8.10;100.00
56681;BME280;42558;52.388;13.390;2022-12-18T05:19:11;102976.48;;;-8.07;100.00
56681;BME280;42558;52.388;13.390;2022-12-18T05:21:39;102982.29;;;-8.18;100.00
56681;BME280;42558;52.388;13.390;2022-12-18T05:24:07;102980.41;;;-8.19;100.00
56681;BME280;42558;52.388;13.390;2022-12-18T05:26:36;102972.23;;;-8.07;100.00
56681;BME280;42558;52.388;13.390;2022-12-18T05:29:04;102973.45;;;-8.15;100.00
56681;BME280;42558;52.388;13.390;2022-12-18T05:31:32;102973.19;;;-8.16;100.00
56681;BME280;42558;52.388;13.390;2022-12-18T05:34:08;102982.16;;;-8.09;100.00
56681;BME280;42558;52.388;13.390;2022-12-18T05:36:38;102985.63;;;-7.95;100.00
56681;BME280;42558;52.388;13.390;2022-12-18T05:39:09;102992.02;;;-7.85;100.00
56681;BME280;42558;52.388;13.390;2022-12-18T05:41:38;102998.27;;;-7.97;100.00
56681;BME280;42558;52.388;13.390;2022-12-18T05:44:08;102999.52;;;-8.10;100.00
56681;BME280;42558;52.388;13.390;2022-12-18T05:46:38;103001.56;;;-8.07;100.00
56681;BME280;42558;52.388;13.390;2022-12-18T05:49:08;103001.08;;;-8.02;100.00
56681;BME280;42558;52.388;13.390;2022-12-18T05:51:38;103003.06;;;-7.98;100.00
56681;BME280;42558;52.388;13.390;2022-12-18T05:54:08;103000.86;;;-8.01;100.00
56681;BME280;42558;52.388;13.390;2022-12-18T05:56:38;102996.73;;;-8.08;100.00
56681;BME280;42558;52.388;13.390;2022-12-18T05:59:15;102996.36;;;-8.01;100.00
56681;BME280;42558;52.388;13.390;2022-12-18T06:01:46;103000.42;;;-7.86;100.00
56681;BME280;42558;52.388;13.390;2022-12-18T06:04:15;103002.17;;;-7.76;100.00
56681;BME280;42558;52.388;13.390;2022-12-18T06:06:45;103007.62;;;-7.79;100.00
56681;BME280;42558;52.388;13.390;2022-12-18T06:09:15;103003.67;;;-7.79;100.00
56681;BME280;42558;52.388;13.390;2022-12-18T06:11:45;103012.98;;;-7.77;100.00
56681;BME280;42558;52.388;13.390;2022-12-18T06:14:15;103020.05;;;-7.71;100.00
56681;BME280;42558;52.388;13.390;2022-12-18T06:16:46;103024.54;;;-7.85;100.00
56681;BME280;42558;52.388;13.390;2022-12-18T06:19:16;103022.20;;;-7.95;100.00
56681;BME280;42558;52.388;13.390;2022-12-18T06:21:46;103024.92;;;-7.89;100.00
56681;BME280;42558;52.388;13.390;2022-12-18T06:24:16;103034.61;;;-7.81;100.00
56681;BME280;42558;52.388;13.390;2022-12-18T06:26:46;103040.21;;;-7.71;100.00
56681;BME280;42558;52.388;13.390;2022-12-18T06:29:16;103034.09;;;-7.62;100.00
56681;BME280;42558;52.388;13.390;2022-12-18T06:31:45;103024.91;;;-7.72;100.00
56681;BME280;42558;52.388;13.390;2022-12-18T06:34:15;103028.34;;;-7.75;100.00
56681;BME280;42558;52.388;13.390;2022-12-18T06:36:45;103028.96;;;-7.75;100.00
56681;BME280;42558;52.388;13.390;2022-12-18T06:39:15;103038.66;;;-7.75;100.00
56681;BME280;42558;52.388;13.390;2022-12-18T06:41:42;103040.14;;;-7.70;100.00
56681;BME280;42558;52.388;13.390;2022-12-18T06:44:09;103043.17;;;-7.81;100.00
56681;BME280;42558;52.388;13.390;2022-12-18T06:46:40;103046.34;;;-7.94;100.00
56681;BME280;42558;52.388;13.390;2022-12-18T06:49:09;103049.75;;;-7.83;100.00
56681;BME280;42558;52.388;13.390;2022-12-18T06:51:39;103053.88;;;-7.73;100.00
56681;BME280;42558;52.388;13.390;2022-12-18T06:54:09;103053.05;;;-7.68;100.00
56681;BME280;42558;52.388;13.390;2022-12-18T06:56:39;103059.38;;;-7.62;100.00
56681;BME280;42558;52.388;13.390;2022-12-18T06:59:09;103066.14;;;-7.62;100.00
56681;BME280;42558;52.388;13.390;2022-12-18T07:01:39;103069.27;;;-7.69;100.00
56681;BME280;42558;52.388;13.390;2022-12-18T07:04:09;103065.99;;;-7.71;100.00
56681;BME280;42558;52.388;13.390;2022-12-18T07:06:38;103067.07;;;-7.68;100.00
56681;BME280;42558;52.388;13.390;2022-12-18T07:09:08;103075.10;;;-7.66;100.00
56681;BME280;42558;52.388;13.390;2022-12-18T07:11:38;103072.88;;;-7.73;100.00
56681;BME280;42558;52.388;13.390;2022-12-18T07:14:08;103064.77;;;-7.76;100.00
56681;BME280;42558;52.388;13.390;2022-12-18T07:16:37;103062.69;;;-7.66;100.00
56681;BME280;42558;52.388;13.390;2022-12-18T07:19:07;103065.27;;;-7.70;100.00
56681;BME280;42558;52.388;13.390;2022-12-18T07:21:36;103068.83;;;-7.77;100.00
56681;BME280;42558;52.388;13.390;2022-12-18T07:24:06;103071.77;;;-7.75;100.00
56681;BME280;42558;52.388;13.390;2022-12-18T07:26:35;103068.83;;;-7.88;100.00
56681;BME280;42558;52.388;13.390;2022-12-18T07:29:05;103066.98;;;-7.74;100.00
56681;BME280;42558;52.388;13.390;2022-12-18T07:31:34;103071.16;;;-7.58;100.00
56681;BME280;42558;52.388;13.390;2022-12-18T07:34:04;103069.21;;;-7.72;100.00
56681;BME280;42558;52.388;13.390;2022-12-18T07:36:34;103063.76;;;-7.65;100.00
56681;BME280;42558;52.388;13.390;2022-12-18T07:39:04;103069.25;;;-7.59;100.00
56681;BME280;42558;52.388;13.390;2022-12-18T07:41:34;103072.97;;;-7.45;100.00
56681;BME280;42558;52.388;13.390;2022-12-18T07:44:04;103064.95;;;-7.43;100.00
56681;BME280;42558;52.388;13.390;2022-12-18T07:46:33;103063.88;;;-7.49;100.00
56681;BME280;42558;52.388;13.390;2022-12-18T07:49:04;103060.02;;;-7.43;100.00
56681;BME280;42558;52.388;13.390;2022-12-18T07:51:33;103062.73;;;-7.31;100.00
56681;BME280;42558;52.388;13.390;2022-12-18T07:54:03;103064.51;;;-7.31;100.00
56681;BME280;42558;52.388;13.390;2022-12-18T07:56:33;103060.95;;;-7.32;100.00
56681;BME280;42558;52.388;13.390;2022-12-18T07:59:03;103056.48;;;-7.38;100.00
56681;BME280;42558;52.388;13.390;2022-12-18T08:01:33;103056.99;;;-7.34;100.00
56681;BME280;42558;52.388;13.390;2022-12-18T08:04:03;103056.38;;;-7.33;100.00
56681;BME280;42558;52.388;13.390;2022-12-18T08:06:33;103056.06;;;-7.37;100.00
56681;BME280;42558;52.388;13.390;2022-12-18T08:09:03;103062.85;;;-7.36;100.00
56681;BME280;42558;52.388;13.390;2022-12-18T08:11:32;103069.69;;;-7.38;100.00
56681;BME280;42558;52.388;13.390;2022-12-18T08:14:02;103068.75;;;-7.31;100.00
56681;BME280;42558;52.388;13.390;2022-12-18T08:16:32;103075.89;;;-7.43;100.00
56681;BME280;42558;52.388;13.390;2022-12-18T08:19:02;103076.58;;;-7.34;100.00
56681;BME280;42558;52.388;13.390;2022-12-18T08:21:32;103073.33;;;-7.32;100.00
56681;BME280;42558;52.388;13.390;2022-12-18T08:24:03;103070.61;;;-7.17;100.00
56681;BME280;42558;52.388;13.390;2022-12-18T08:26:32;103075.30;;;-7.15;100.00
56681;BME280;42558;52.388;13.390;2022-12-18T08:29:02;103079.20;;;-7.21;100.00
56681;BME280;42558;52.388;13.390;2022-12-18T08:31:32;103075.09;;;-7.09;100.00
56681;BME280;42558;52.388;13.390;2022-12-18T08:34:02;103076.05;;;-7.17;100.00
56681;BME280;42558;52.388;13.390;2022-12-18T08:36:32;103073.47;;;-7.18;100.00
56681;BME280;42558;52.388;13.390;2022-12-18T08:39:02;103078.68;;;-7.13;100.00
56681;BME280;42558;52.388;13.390;2022-12-18T08:41:32;103081.89;;;-7.18;100.00
56681;BME280;42558;52.388;13.390;2022-12-18T08:44:02;103083.84;;;-7.10;100.00
56681;BME280;42558;52.388;13.390;2022-12-18T08:46:51;103093.85;;;-7.22;100.00
56681;BME280;42558;52.388;13.390;2022-12-18T08:49:20;103095.77;;;-7.27;100.00
56681;BME280;42558;52.388;13.390;2022-12-18T08:51:55;103093.36;;;-7.13;100.00
56681;BME280;42558;52.388;13.390;2022-12-18T08:54:26;103096.10;;;-7.09;100.00
56681;BME280;42558;52.388;13.390;2022-12-18T08:56:53;103103.13;;;-7.07;100.00
56681;BME280;42558;52.388;13.390;2022-12-18T08:59:22;103113.00;;;-7.03;100.00
56681;BME280;42558;52.388;13.390;2022-12-18T09:01:53;103115.05;;;-6.90;100.00
56681;BME280;42558;52.388;13.390;2022-12-18T09:04:24;103118.34;;;-6.91;100.00
56681;BME280;42558;52.388;13.390;2022-12-18T09:06:53;103124.95;;;-7.05;100.00
56681;BME280;42558;52.388;13.390;2022-12-18T09:09:23;103122.70;;;-6.86;100.00
56681;BME280;42558;52.388;13.390;2022-12-18T09:11:53;103125.77;;;-6.96;100.00
56681;BME280;42558;52.388;13.390;2022-12-18T09:14:23;103130.98;;;-6.95;100.00
56681;BME280;42558;52.388;13.390;2022-12-18T09:16:52;103131.18;;;-6.79;100.00
56681;BME280;42558;52.388;13.390;2022-12-18T09:19:22;103128.20;;;-6.95;100.00
56681;BME280;42558;52.388;13.390;2022-12-18T09:21:52;103133.98;;;-7.07;100.00
56681;BME280;42558;52.388;13.390;2022-12-18T09:24:22;103138.43;;;-7.02;100.00
56681;BME280;42558;52.388;13.390;2022-12-18T09:26:55;103129.33;;;-6.90;100.00
56681;BME280;42558;52.388;13.390;2022-12-18T09:29:26;103131.86;;;-6.93;100.00
56681;BME280;42558;52.388;13.390;2022-12-18T09:31:55;103133.83;;;-7.11;100.00
56681;BME280;42558;52.388;13.390;2022-12-18T09:34:23;103139.02;;;-7.03;100.00
56681;BME280;42558;52.388;13.390;2022-12-18T09:36:51;103137.66;;;-6.88;100.00
56681;BME280;42558;52.388;13.390;2022-12-18T09:39:20;103134.69;;;-6.82;100.00
56681;BME280;42558;52.388;13.390;2022-12-18T09:41:58;103123.59;;;-6.78;100.00
56681;BME280;42558;52.388;13.390;2022-12-18T09:44:34;103114.48;;;-6.98;100.00
56681;BME280;42558;52.388;13.390;2022-12-18T09:47:21;103110.33;;;-6.83;100.00
56681;BME280;42558;52.388;13.390;2022-12-18T09:49:58;103102.04;;;-6.67;100.00
56681;BME280;42558;52.388;13.390;2022-12-18T09:52:39;103104.58;;;-6.68;100.00
56681;BME280;42558;52.388;13.390;2022-12-18T09:55:30;103094.86;;;-6.61;100.00
56681;BME280;42558;52.388;13.390;2022-12-18T10:00:52;103092.73;;;-6.52;100.00
56681;BME280;42558;52.388;13.390;2022-12-18T10:03:23;103082.65;;;-6.57;100.00
56681;BME280;42558;52.388;13.390;2022-12-18T10:06:13;103072.11;;;-6.57;100.00
56681;BME280;42558;52.388;13.390;2022-12-18T10:09:09;103061.57;;;-6.50;100.00
56681;BME280;42558;52.388;13.390;2022-12-18T10:11:57;103063.82;;;-6.38;100.00
56681;BME280;42558;52.388;13.390;2022-12-18T10:15:17;103057.82;;;-6.27;100.00
56681;BME280;42558;52.388;13.390;2022-12-18T10:18:20;103065.02;;;-6.17;100.00
56681;BME280;42558;52.388;13.390;2022-12-18T10:21:34;103061.20;;;-6.01;100.00
56681;BME280;42558;52.388;13.390;2022-12-18T10:26:44;103062.95;;;-5.99;100.00
56681;BME280;42558;52.388;13.390;2022-12-18T10:29:16;103059.20;;;-5.98;100.00
56681;BME280;42558;52.388;13.390;2022-12-18T10:31:46;103059.33;;;-6.00;100.00
56681;BME280;42558;52.388;13.390;2022-12-18T10:34:15;103057.70;;;-5.89;100.00
56681;BME280;42558;52.388;13.390;2022-12-18T10:36:47;103052.52;;;-6.09;100.00
56681;BME280;42558;52.388;13.390;2022-12-18T10:39:24;103049.10;;;-6.05;100.00
56681;BME280;42558;52.388;13.390;2022-12-18T10:42:19;103046.19;;;-5.96;100.00
56681;BME280;42558;52.388;13.390;2022-12-18T10:45:06;103037.33;;;-5.86;100.00
56681;BME280;42558;52.388;13.390;2022-12-18T10:47:43;103035.45;;;-5.84;100.00
56681;BME280;42558;52.388;13.390;2022-12-18T10:50:36;103030.15;;;-5.75;100.00
56681;BME280;42558;52.388;13.390;2022-12-18T10:53:31;103028.07;;;-5.81;100.00
56681;BME280;42558;52.388;13.390;2022-12-18T10:56:04;103025.00;;;-5.63;100.00
56681;BME280;42558;52.388;13.390;2022-12-18T10:58:38;103022.17;;;-5.71;100.00
56681;BME280;42558;52.388;13.390;2022-12-18T11:01:18;103017.40;;;-5.68;100.00
56681;BME280;42558;52.388;13.390;2022-12-18T11:06:30;103015.98;;;-5.52;100.00
56681;BME280;42558;52.388;13.390;2022-12-18T11:09:03;103010.52;;;-5.56;100.00
56681;BME280;42558;52.388;13.390;2022-12-18T11:11:49;103007.61;;;-5.43;100.00
56681;BME280;42558;52.388;13.390;2022-12-18T11:14:32;103010.16;;;-5.55;100.00
56681;BME280;42558;52.388;13.390;2022-12-18T11:17:02;103019.20;;;-5.58;100.00
56681;BME280;42558;52.388;13.390;2022-12-18T11:20:00;103021.33;;;-5.69;100.00
56681;BME280;42558;52.388;13.390;2022-12-18T11:22:35;103016.03;;;-5.56;100.00
56681;BME280;42558;52.388;13.390;2022-12-18T11:25:18;103013.30;;;-5.66;100.00
56681;BME280;42558;52.388;13.390;2022-12-18T11:28:38;103010.67;;;-5.56;100.00
56681;BME280;42558;52.388;13.390;2022-12-18T11:31:24;103005.46;;;-5.63;100.00
56681;BME280;42558;52.388;13.390;2022-12-18T11:34:23;103006.90;;;-5.52;100.00
56681;BME280;42558;52.388;13.390;2022-12-18T11:37:00;103007.16;;;-5.45;100.00
56681;BME280;42558;52.388;13.390;2022-12-18T11:39:59;103011.27;;;-5.50;100.00
56681;BME280;42558;52.388;13.390;2022-12-18T11:42:53;103006.76;;;-5.47;100.00
56681;BME280;42558;52.388;13.390;2022-12-18T11:45:33;103006.53;;;-5.40;100.00
56681;BME280;42558;52.388;13.390;2022-12-18T11:48:27;103013.80;;;-5.52;100.00
56681;BME280;42558;52.388;13.390;2022-12-18T11:51:03;103011.04;;;-5.34;100.00
56681;BME280;42558;52.388;13.390;2022-12-18T11:53:35;103012.38;;;-5.33;100.00
56681;BME280;42558;52.388;13.390;2022-12-18T11:59:02;103026.14;;;-5.46;100.00
56681;BME280;42558;52.388;13.390;2022-12-18T12:01:50;103029.73;;;-5.37;100.00
56681;BME280;42558;52.388;13.390;2022-12-18T12:22:48;103034.83;;;-5.20;100.00
56681;BME280;42558;52.388;13.390;2022-12-18T12:30:38;103036.41;;;-5.20;100.00
56681;BME280;42558;52.388;13.390;2022-12-18T12:33:52;103047.05;;;-5.18;100.00
56681;BME280;42558;52.388;13.390;2022-12-18T12:36:49;103055.94;;;-5.23;100.00
56681;BME280;42558;52.388;13.390;2022-12-18T12:39:31;103058.66;;;-5.30;100.00
56681;BME280;42558;52.388;13.390;2022-12-18T12:42:08;103064.45;;;-5.37;100.00
56681;BME280;42558;52.388;13.390;2022-12-18T12:45:28;103066.09;;;-5.46;100.00
56681;BME280;42558;52.388;13.390;2022-12-18T12:48:04;103058.57;;;-5.45;100.00
56681;BME280;42558;52.388;13.390;2022-12-18T12:50:38;103048.73;;;-5.38;100.00
56681;BME280;42558;52.388;13.390;2022-12-18T12:53:22;103043.61;;;-5.31;100.00
56681;BME280;42558;52.388;13.390;2022-12-18T12:55:55;103038.72;;;-5.42;100.00
56681;BME280;42558;52.388;13.390;2022-12-18T13:01:39;103024.45;;;-5.28;100.00
56681;BME280;42558;52.388;13.390;2022-12-18T13:07:35;103012.30;;;-5.36;100.00
56681;BME280;42558;52.388;13.390;2022-12-18T13:15:43;103016.59;;;-5.22;100.00
56681;BME280;42558;52.388;13.390;2022-12-18T13:18:20;103015.61;;;-5.30;100.00
56681;BME280;42558;52.388;13.390;2022-12-18T13:23:35;103017.45;;;-5.27;100.00
56681;BME280;42558;52.388;13.390;2022-12-18T13:28:59;103013.86;;;-5.39;100.00
56681;BME280;42558;52.388;13.390;2022-12-18T13:34:21;103013.25;;;-5.44;100.00
56681;BME280;42558;52.388;13.390;2022-12-18T13:46:00;103002.30;;;-5.38;100.00
56681;BME280;42558;52.388;13.390;2022-12-18T13:48:37;103006.48;;;-5.32;100.00
56681;BME280;42558;52.388;13.390;2022-12-18T13:51:11;103007.30;;;-5.31;100.00
56681;BME280;42558;52.388;13.390;2022-12-18T13:53:50;102999.66;;;-5.39;100.00
56681;BME280;42558;52.388;13.390;2022-12-18T13:56:33;102996.11;;;-5.34;100.00
56681;BME280;42558;52.388;13.390;2022-12-18T13:59:20;102991.02;;;-5.21;100.00
56681;BME280;42558;52.388;13.390;2022-12-18T14:01:56;102994.38;;;-5.31;100.00
56681;BME280;42558;52.388;13.390;2022-12-18T14:04:31;102990.07;;;-5.49;100.00
56681;BME280;42558;52.388;13.390;2022-12-18T14:07:16;102980.02;;;-5.56;100.00
56681;BME280;42558;52.388;13.390;2022-12-18T14:09:52;102975.83;;;-5.44;100.00
56681;BME280;42558;52.388;13.390;2022-12-18T14:12:36;102981.16;;;-5.34;100.00
56681;BME280;42558;52.388;13.390;2022-12-18T14:15:41;102986.69;;;-5.33;100.00
56681;BME280;42558;52.388;13.390;2022-12-18T14:20:51;102977.20;;;-5.42;100.00
56681;BME280;42558;52.388;13.390;2022-12-18T14:23:39;102973.77;;;-5.39;100.00
56681;BME280;42558;52.388;13.390;2022-12-18T14:26:22;102970.33;;;-5.57;100.00
56681;BME280;42558;52.388;13.390;2022-12-18T14:28:58;102957.09;;;-5.53;100.00
56681;BME280;42558;52.388;13.390;2022-12-18T14:31:31;102944.84;;;-5.51;100.00
56681;BME280;42558;52.388;13.390;2022-12-18T14:33:59;102939.16;;;-5.59;100.00
56681;BME280;42558;52.388;13.390;2022-12-18T14:36:29;102935.78;;;-5.58;100.00